Energy Century — MBEF7 — position and weather

sailwx.info

Track history (hours):
 
Tides and Currents Weather Stations Pressure Air Temp Water Temp Dewpoint Dewpoint Depression Visibility Wind Speed Wind Dir Waves Ship Positions

Energy Century

Last reported at 2017-Sep-15 09:06 UTC. Time now 2017-Sep-21 10:33 UTC.
Position N 37°11' E 005°43'.

Length 228 m; draft 8 m.

Type: Ship (hazmat cat D). MMSI: 235733000.

Date/timePositionNaut miles runAvg speedWind from/ knotsBaromVisibWave heightAir tempDewpointWater temp
2017-Sep-15 09:06N 37°11' E 005°43'214.1
2017-Sep-15 08:58N 37°11' E 005°40'713.9
2017-Sep-15 08:29N 37°11' E 005°32'11414.1
2017-Sep-15 00:22N 37°06' E 003°09'2214.4
2017-Sep-14 22:52N 37°03' E 002°42'514.5
2017-Sep-14 22:30N 37°01' E 002°36'1414.1
2017-Sep-14 21:32N 36°58' E 002°19'013.9
2017-Sep-14 21:30N 36°58' E 002°18'913.8
2017-Sep-14 20:53N 36°56' E 002°08'513.6
2017-Sep-14 20:30N 36°55' E 002°02'713.4
2017-Sep-14 20:00N 36°54' E 001°53'813.5
2017-Sep-14 19:22N 36°53' E 001°43'513.4
2017-Sep-14 19:00N 36°51' E 001°37'713.5
2017-Sep-14 18:30N 36°50' E 001°29'713.5
2017-Sep-14 18:00N 36°48' E 001°20'713.5
2017-Sep-14 17:30N 36°47' E 001°12'713.5
2017-Sep-14 17:00N 36°45' E 001°04'714.0
2017-Sep-14 16:30N 36°43' E 000°56'714.4
2017-Sep-14 16:00N 36°41' E 000°47'714.4
2017-Sep-14 15:31N 36°39' E 000°38'714.5
2017-Sep-14 15:00N 36°37' E 000°30'714.6
2017-Sep-14 14:30N 36°35' E 000°21'714.5
2017-Sep-14 14:01N 36°33' E 000°13'714.4
2017-Sep-14 13:30N 36°31' E 000°04'1114.3
2017-Sep-14 12:44N 36°27' W 000°09'314.3
2017-Sep-14 12:30N 36°26' W 000°13'714.3
2017-Sep-14 12:01N 36°24' W 000°21'714.2
2017-Sep-14 11:31N 36°22' W 000°30'1914.1
2017-Sep-14 10:08N 36°17' W 000°53'214.0
2017-Sep-14 09:59N 36°16' W 000°55'1914.2
2017-Sep-14 08:40N 36°13' W 001°18'214.2
2017-Sep-14 08:30N 36°13' W 001°21'714.2
2017-Sep-14 08:00N 36°12' W 001°30'714.5
2017-Sep-14 07:30N 36°12' W 001°39'4013.8
2017-Sep-14 04:35N 36°09' W 002°29'113.6
2017-Sep-14 04:28N 36°09' W 002°30'612.2
2017-Sep-14 04:00N 36°12' W 002°36'12114.3
2017-Sep-13 19:34N 36°08' W 005°06'115.0
2017-Sep-13 19:30N 36°08' W 005°07'714.3
2017-Sep-13 19:00N 36°07' W 005°16'2 3.4
2017-Sep-13 18:30N 36°07' W 005°18'0 0.6
2017-Sep-13 18:00N 36°07' W 005°18'3 5.2
2017-Sep-13 17:30N 36°06' W 005°21'3 5.5
2017-Sep-13 17:00N 36°07' W 005°23'3 2.1
2017-Sep-13 15:36N 36°10' W 005°24'0 0.0
2017-Sep-13 07:52N 36°10' W 005°24'2 5.6
2017-Sep-13 07:30N 36°08' W 005°24'3 6.2
2017-Sep-13 07:00N 36°06' W 005°22'611.2
2017-Sep-13 06:31N 36°07' W 005°15'3 5.7
2017-Sep-13 06:00N 36°07' W 005°12'1 2.9
2017-Sep-13 05:31N 36°07' W 005°14'4 7.9
2017-Sep-13 05:01N 36°06' W 005°18'0 0.6
2017-Sep-13 04:31N 36°07' W 005°18'1 2.0
2017-Sep-13 04:01N 36°06' W 005°18'4 8.1
2017-Sep-13 03:31N 36°02' W 005°17'510.5
2017-Sep-13 03:00N 35°59' W 005°23'714.0
2017-Sep-13 02:31N 35°56' W 005°31'1013.6
2017-Sep-13 01:47N 35°54' W 005°43'412.7
2017-Sep-13 01:31N 35°54' W 005°47'712.7
2017-Sep-13 00:59N 35°54' W 005°55'713.5
2017-Sep-13 00:27N 35°53' W 006°04'5213.9
2017-Sep-12 20:41N 35°52' W 007°09'213.6
2017-Sep-12 20:30N 35°51' W 007°12'713.6
2017-Sep-12 20:00N 35°51' W 007°20'1513.8
2017-Sep-12 18:56N 35°51' W 007°38'613.7
2017-Sep-12 18:30N 35°50' W 007°46'713.9
2017-Sep-12 18:00N 35°50' W 007°54'913.7
2017-Sep-12 17:19N 35°49' W 008°06'1614.3
2017-Sep-12 16:12N 35°49' W 008°25'1114.4
2017-Sep-12 15:25N 35°48' W 008°40'614.3
2017-Sep-12 15:00N 35°48' W 008°47'714.1
2017-Sep-12 14:30N 35°47' W 008°55'814.1
2017-Sep-12 13:56N 35°47' W 009°05'614.1
2017-Sep-12 13:30N 35°47' W 009°13'713.8
2017-Sep-12 13:00N 35°47' W 009°21'713.8
2017-Sep-12 12:30N 35°46' W 009°30'713.7
2017-Sep-12 12:00N 35°46' W 009°38'713.5
2017-Sep-12 11:30N 35°46' W 009°46'1113.5
2017-Sep-12 10:42N 35°46' W 009°60'4513.3
2017-Sep-12 07:17N 35°43' W 010°56'1013.0
2017-Sep-12 06:32N 35°43' W 011°08'113.3
2017-Sep-12 06:30N 35°43' W 011°08'713.1
2017-Sep-12 05:56N 35°42' W 011°17'612.9
2017-Sep-12 05:30N 35°42' W 011°24'813.0
2017-Sep-12 04:53N 35°42' W 011°34'513.3
2017-Sep-12 04:30N 35°42' W 011°40'713.5
2017-Sep-12 04:00N 35°41' W 011°49'713.7
2017-Sep-12 03:30N 35°41' W 011°57'713.6
2017-Sep-12 03:01N 35°41' W 012°05'713.5
2017-Sep-12 02:27N 35°40' W 012°14'613.7
2017-Sep-12 02:00N 35°40' W 012°22'713.8
2017-Sep-12 01:30N 35°40' W 012°31'713.7
2017-Sep-12 01:00N 35°39' W 012°39'713.7
2017-Sep-12 00:30N 35°39' W 012°47'713.6
2017-Sep-12 00:00N 35°38' W 012°56'713.5
2017-Sep-11 23:30N 35°38' W 013°04'713.7
2017-Sep-11 23:00N 35°38' W 013°13'713.5
2017-Sep-11 22:30N 35°38' W 013°21'1313.4
2017-Sep-11 21:33N 35°37' W 013°36'213.1
2017-Sep-11 21:22N 35°37' W 013°39'613.0
2017-Sep-11 20:57N 35°36' W 013°46'613.1
2017-Sep-11 20:30N 35°35' W 013°53'713.4
2017-Sep-11 19:59N 35°34' W 014°02'50712.9
2017-Sep-10 04:46N 34°22' W 024°14'  
Track history (hours):
 
Tides and Currents Weather Stations Pressure Air Temp Water Temp Dewpoint Dewpoint Depression Visibility Wind Speed Wind Dir Waves Ship Positions

Energy Century

Last reported at 2017-Sep-15 09:06 UTC. Time now 2017-Sep-21 10:33 UTC.
Position N 37°11' E 005°43'.

Length 228 m; draft 8 m.

Type: Ship (hazmat cat D). MMSI: 235733000.

Date/timePositionNaut miles runAvg speedWind from/ knotsBaromVisibWave heightAir tempDewpointWater temp
2017-Sep-15 09:06N 37°11' E 005°43'214.1
2017-Sep-15 08:58N 37°11' E 005°40'713.9
2017-Sep-15 08:29N 37°11' E 005°32'11414.1
2017-Sep-15 00:22N 37°06' E 003°09'2214.4
2017-Sep-14 22:52N 37°03' E 002°42'514.5
2017-Sep-14 22:30N 37°01' E 002°36'1414.1
2017-Sep-14 21:32N 36°58' E 002°19'013.9
2017-Sep-14 21:30N 36°58' E 002°18'913.8
2017-Sep-14 20:53N 36°56' E 002°08'513.6
2017-Sep-14 20:30N 36°55' E 002°02'713.4
2017-Sep-14 20:00N 36°54' E 001°53'813.5
2017-Sep-14 19:22N 36°53' E 001°43'513.4
2017-Sep-14 19:00N 36°51' E 001°37'713.5
2017-Sep-14 18:30N 36°50' E 001°29'713.5
2017-Sep-14 18:00N 36°48' E 001°20'713.5
2017-Sep-14 17:30N 36°47' E 001°12'713.5
2017-Sep-14 17:00N 36°45' E 001°04'714.0
2017-Sep-14 16:30N 36°43' E 000°56'714.4
2017-Sep-14 16:00N 36°41' E 000°47'714.4
2017-Sep-14 15:31N 36°39' E 000°38'714.5
2017-Sep-14 15:00N 36°37' E 000°30'714.6
2017-Sep-14 14:30N 36°35' E 000°21'714.5
2017-Sep-14 14:01N 36°33' E 000°13'714.4
2017-Sep-14 13:30N 36°31' E 000°04'1114.3
2017-Sep-14 12:44N 36°27' W 000°09'314.3
2017-Sep-14 12:30N 36°26' W 000°13'714.3
2017-Sep-14 12:01N 36°24' W 000°21'714.2
2017-Sep-14 11:31N 36°22' W 000°30'1914.1
2017-Sep-14 10:08N 36°17' W 000°53'214.0
2017-Sep-14 09:59N 36°16' W 000°55'1914.2
2017-Sep-14 08:40N 36°13' W 001°18'214.2
2017-Sep-14 08:30N 36°13' W 001°21'714.2
2017-Sep-14 08:00N 36°12' W 001°30'714.5
2017-Sep-14 07:30N 36°12' W 001°39'4013.8
2017-Sep-14 04:35N 36°09' W 002°29'113.6
2017-Sep-14 04:28N 36°09' W 002°30'612.2
2017-Sep-14 04:00N 36°12' W 002°36'12114.3
2017-Sep-13 19:34N 36°08' W 005°06'115.0
2017-Sep-13 19:30N 36°08' W 005°07'714.3
2017-Sep-13 19:00N 36°07' W 005°16'2 3.4
2017-Sep-13 18:30N 36°07' W 005°18'0 0.6
2017-Sep-13 18:00N 36°07' W 005°18'3 5.2
2017-Sep-13 17:30N 36°06' W 005°21'3 5.5
2017-Sep-13 17:00N 36°07' W 005°23'3 2.1
2017-Sep-13 15:36N 36°10' W 005°24'0 0.0
2017-Sep-13 07:52N 36°10' W 005°24'2 5.6
2017-Sep-13 07:30N 36°08' W 005°24'3 6.2
2017-Sep-13 07:00N 36°06' W 005°22'611.2
2017-Sep-13 06:31N 36°07' W 005°15'3 5.7
2017-Sep-13 06:00N 36°07' W 005°12'1 2.9
2017-Sep-13 05:31N 36°07' W 005°14'4 7.9
2017-Sep-13 05:01N 36°06' W 005°18'0 0.6
2017-Sep-13 04:31N 36°07' W 005°18'1 2.0
2017-Sep-13 04:01N 36°06' W 005°18'4 8.1
2017-Sep-13 03:31N 36°02' W 005°17'510.5
2017-Sep-13 03:00N 35°59' W 005°23'714.0
2017-Sep-13 02:31N 35°56' W 005°31'1013.6
2017-Sep-13 01:47N 35°54' W 005°43'412.7
2017-Sep-13 01:31N 35°54' W 005°47'712.7
2017-Sep-13 00:59N 35°54' W 005°55'713.5
2017-Sep-13 00:27N 35°53' W 006°04'5213.9
2017-Sep-12 20:41N 35°52' W 007°09'213.6
2017-Sep-12 20:30N 35°51' W 007°12'713.6
2017-Sep-12 20:00N 35°51' W 007°20'1513.8
2017-Sep-12 18:56N 35°51' W 007°38'613.7
2017-Sep-12 18:30N 35°50' W 007°46'713.9
2017-Sep-12 18:00N 35°50' W 007°54'913.7
2017-Sep-12 17:19N 35°49' W 008°06'1614.3
2017-Sep-12 16:12N 35°49' W 008°25'1114.4
2017-Sep-12 15:25N 35°48' W 008°40'614.3
2017-Sep-12 15:00N 35°48' W 008°47'714.1
2017-Sep-12 14:30N 35°47' W 008°55'814.1
2017-Sep-12 13:56N 35°47' W 009°05'614.1
2017-Sep-12 13:30N 35°47' W 009°13'713.8
2017-Sep-12 13:00N 35°47' W 009°21'713.8
2017-Sep-12 12:30N 35°46' W 009°30'713.7
2017-Sep-12 12:00N 35°46' W 009°38'713.5
2017-Sep-12 11:30N 35°46' W 009°46'1113.5
2017-Sep-12 10:42N 35°46' W 009°60'4513.3
2017-Sep-12 07:17N 35°43' W 010°56'1013.0
2017-Sep-12 06:32N 35°43' W 011°08'113.3
2017-Sep-12 06:30N 35°43' W 011°08'713.1
2017-Sep-12 05:56N 35°42' W 011°17'612.9
2017-Sep-12 05:30N 35°42' W 011°24'813.0
2017-Sep-12 04:53N 35°42' W 011°34'513.3
2017-Sep-12 04:30N 35°42' W 011°40'713.5
2017-Sep-12 04:00N 35°41' W 011°49'713.7
2017-Sep-12 03:30N 35°41' W 011°57'713.6
2017-Sep-12 03:01N 35°41' W 012°05'713.5
2017-Sep-12 02:27N 35°40' W 012°14'613.7
2017-Sep-12 02:00N 35°40' W 012°22'713.8
2017-Sep-12 01:30N 35°40' W 012°31'713.7
2017-Sep-12 01:00N 35°39' W 012°39'713.7
2017-Sep-12 00:30N 35°39' W 012°47'713.6
2017-Sep-12 00:00N 35°38' W 012°56'713.5
2017-Sep-11 23:30N 35°38' W 013°04'713.7
2017-Sep-11 23:00N 35°38' W 013°13'713.5
2017-Sep-11 22:30N 35°38' W 013°21'1313.4
2017-Sep-11 21:33N 35°37' W 013°36'213.1
2017-Sep-11 21:22N 35°37' W 013°39'613.0
2017-Sep-11 20:57N 35°36' W 013°46'613.1
2017-Sep-11 20:30N 35°35' W 013°53'713.4
2017-Sep-11 19:59N 35°34' W 014°02'50712.9
2017-Sep-10 04:46N 34°22' W 024°14'  

Dump ship's entire track history